Time;durP1;ratioP1;P1;durP2;ratioP2;P2;SDS_P1;SDS_P2;PMS_P1;PMS_P2;Temp;Humidity;BMP_temperature;BMP_pressure;BME280_temperature;BME280_humidity;BME280_pressure;Samples;Min_cycle;Max_cycle;Signal;HPM_P1;HPM_P2
2021/12/20 05:11:50;;;;;;;1.90;1.80;;;0.50;99.90;;;;;;5382694;23;20238;-72
2021/12/20 05:14:17;;;;;;;2.00;2.00;;;0.50;99.90;;;;;;5013794;28;20213;-72
2021/12/20 05:16:44;;;;;;;1.80;1.80;;;0.50;99.90;;;;;;5013489;28;20205;-72
2021/12/20 05:19:11;;;;;;;1.98;1.98;;;0.60;99.90;;;;;;5013548;28;20743;-72
2021/12/20 05:21:38;;;;;;;1.92;1.83;;;0.60;99.90;;;;;;5014051;28;20228;-72
2021/12/20 05:24:05;;;;;;;2.05;2.05;;;0.60;99.90;;;;;;5014195;28;20304;-72
2021/12/20 05:26:32;;;;;;;2.30;2.20;;;0.60;99.90;;;;;;5014293;28;20651;-72
2021/12/20 05:29:06;;;;;;;1.80;1.80;;;0.60;99.90;;;;;;5014394;28;20198;-69
2021/12/20 05:31:34;;;;;;;1.63;1.63;;;0.60;99.90;;;;;;5014431;28;20621;-70
2021/12/20 05:34:01;;;;;;;1.92;1.83;;;0.70;99.90;;;;;;5013877;28;20603;-69
2021/12/20 05:36:28;;;;;;;1.88;1.80;;;0.70;99.90;;;;;;5013662;28;20293;-69
2021/12/20 05:38:54;;;;;;;1.50;1.50;;;0.70;99.90;;;;;;5014444;28;20230;-69
2021/12/20 05:41:21;;;;;;;2.30;2.20;;;0.70;99.90;;;;;;5013699;28;20772;-70
2021/12/20 05:43:48;;;;;;;1.88;1.88;;;0.70;99.90;;;;;;5013600;28;20308;-71
2021/12/20 05:46:17;;;;;;;1.60;1.60;;;0.60;99.90;;;;;;5013791;28;20595;-68
2021/12/20 05:48:44;;;;;;;1.98;1.88;;;0.60;99.90;;;;;;5013538;28;20312;-67
2021/12/20 05:51:11;;;;;;;1.70;1.70;;;0.60;99.90;;;;;;5013806;28;20320;-68
2021/12/20 05:53:37;;;;;;;2.20;2.10;;;0.60;99.90;;;;;;5013892;28;20202;-67
2021/12/20 05:56:05;;;;;;;2.78;2.67;;;0.70;99.90;;;;;;5013700;28;20275;-69
2021/12/20 05:58:32;;;;;;;2.70;2.60;;;0.60;99.90;;;;;;5013638;28;20289;-69
2021/12/20 06:00:59;;;;;;;2.40;2.30;;;0.70;99.90;;;;;;5013977;28;20221;-69
2021/12/20 06:03:27;;;;;;;2.00;2.00;;;0.70;99.90;;;;;;5013712;28;20304;-68
2021/12/20 06:05:54;;;;;;;1.70;1.60;;;0.70;99.90;;;;;;5013456;28;20206;-68
2021/12/20 06:08:21;;;;;;;2.17;2.08;;;0.70;99.90;;;;;;5013409;28;20799;-68
2021/12/20 06:10:47;;;;;;;2.30;2.20;;;0.80;99.90;;;;;;5013674;28;20630;-68
2021/12/20 06:13:14;;;;;;;1.75;1.75;;;0.80;99.90;;;;;;5013453;28;20213;-67
2021/12/20 06:15:41;;;;;;;1.70;1.70;;;0.80;99.90;;;;;;5013312;28;20645;-67
2021/12/20 06:18:08;;;;;;;1.85;1.85;;;0.80;99.90;;;;;;5013632;28;20198;-67
2021/12/20 06:20:38;;;;;;;1.80;1.70;;;0.80;99.90;;;;;;5013646;28;20226;-68
2021/12/20 11:46:56;;;;;;;2.42;2.25;;;3.70;99.90;;;;;;5704649;23;20221;-70
2021/12/20 11:49:24;;;;;;;2.60;1.98;;;3.70;99.90;;;;;;5015643;28;20292;-70
2021/12/20 11:52:16;;;;;;;3.85;2.17;;;3.60;99.90;;;;;;5015544;28;20628;-69
2021/12/20 11:54:50;;;;;;;2.45;1.88;;;3.50;99.90;;;;;;5001493;28;20294;-70
2021/12/20 11:57:36;;;;;;;5.00;1.83;;;3.50;99.90;;;;;;5021087;28;20280;-71
2021/12/20 12:00:21;;;;;;;2.40;2.00;;;3.40;99.90;;;;;;5015900;28;20190;-72
2021/12/20 12:02:51;;;;;;;1.90;1.80;;;3.40;99.90;;;;;;5012250;28;20301;-72
2021/12/20 12:05:30;;;;;;;1.45;1.30;;;3.30;99.90;;;;;;5015549;28;20301;-72
2021/12/20 12:08:33;;;;;;;3.75;1.80;;;3.20;99.90;;;;;;5015588;28;20317;-72
2021/12/20 12:11:29;;;;;;;3.83;1.80;;;3.10;99.90;;;;;;5015595;28;20288;-73
2021/12/20 12:14:19;;;;;;;1.90;1.80;;;3.10;99.90;;;;;;5015489;28;20178;-72
2021/12/20 12:16:58;;;;;;;3.78;1.77;;;3.00;99.90;;;;;;5015073;28;20693;-74
2021/12/20 12:19:49;;;;;;;3.33;1.85;;;2.90;99.90;;;;;;5015491;28;20240;-72
2021/12/20 12:22:34;;;;;;;2.83;1.60;;;2.90;99.90;;;;;;5015643;28;20190;-70
2021/12/20 12:25:01;;;;;;;3.38;2.05;;;3.00;99.90;;;;;;5015151;28;20221;-72
2021/12/20 12:27:29;;;;;;;2.60;1.77;;;3.10;99.90;;;;;;5014825;28;20667;-74
2021/12/20 12:30:31;;;;;;;1.80;1.70;;;3.20;99.90;;;;;;5015240;28;20237;-74
2021/12/20 12:33:37;;;;;;;1.98;1.70;;;3.30;99.90;;;;;;5015250;28;20225;-74
2021/12/20 12:36:22;;;;;;;2.53;2.00;;;3.40;99.90;;;;;;5015070;28;20280;-73
2021/12/20 12:38:55;;;;;;;3.88;2.33;;;3.50;99.90;;;;;;5015031;28;20213;-72
2021/12/20 12:41:25;;;;;;;3.00;1.67;;;3.50;99.90;;;;;;5015179;28;20210;-72
2021/12/20 12:43:59;;;;;;;3.15;1.95;;;3.40;99.90;;;;;;5015856;28;20214;-70
2021/12/20 12:47:07;;;;;;;3.65;2.22;;;3.40;99.90;;;;;;5014652;28;20312;-70
2021/12/20 12:49:46;;;;;;;4.60;2.33;;;3.30;99.90;;;;;;5014601;28;20194;-70
2021/12/20 12:52:34;;;;;;;2.08;1.70;;;3.20;99.90;;;;;;5014627;28;20641;-70
2021/12/20 12:55:03;;;;;;;2.22;2.03;;;3.20;99.90;;;;;;5014651;28;20285;-69
2021/12/20 12:57:36;;;;;;;3.53;2.72;;;3.20;99.90;;;;;;5014413;28;20771;-69
2021/12/20 13:00:20;;;;;;;3.40;2.75;;;3.20;99.90;;;;;;5014847;28;20277;-70
2021/12/20 13:02:48;;;;;;;4.07;2.72;;;3.10;99.90;;;;;;5014443;28;20197;-70
2021/12/20 13:05:17;;;;;;;3.38;2.60;;;3.10;99.90;;;;;;5014497;28;20226;-70
2021/12/20 13:07:48;;;;;;;4.88;3.15;;;3.00;99.90;;;;;;5014538;28;20328;-71
2021/12/20 13:10:17;;;;;;;3.35;3.03;;;2.90;99.90;;;;;;5014498;28;20209;-70
2021/12/20 13:12:50;;;;;;;5.18;3.10;;;2.90;99.90;;;;;;5014540;28;20296;-70
2021/12/20 13:15:24;;;;;;;5.03;3.13;;;2.90;99.90;;;;;;5014385;28;20186;-70
2021/12/20 13:17:54;;;;;;;4.95;3.40;;;2.80;99.90;;;;;;5014280;28;20226;-70
2021/12/20 13:20:27;;;;;;;5.40;3.40;;;2.80;99.90;;;;;;5014394;28;20244;-70
2021/12/20 13:22:58;;;;;;;8.50;3.47;;;2.80;99.90;;;;;;5014304;28;20220;-70
2021/12/20 13:25:39;;;;;;;6.57;3.10;;;2.80;99.90;;;;;;5013933;28;20669;-70
2021/12/20 13:28:09;;;;;;;3.28;2.97;;;2.70;99.90;;;;;;5013881;28;20783;-70
2021/12/20 13:30:41;;;;;;;7.72;3.22;;;2.70;99.90;;;;;;5014126;28;20628;-70
2021/12/20 13:33:08;;;;;;;3.75;3.45;;;2.60;99.90;;;;;;5014765;28;20190;-71
2021/12/20 13:35:37;;;;;;;3.90;3.25;;;2.50;99.90;;;;;;5013737;28;20293;-71
2021/12/20 13:38:14;;;;;;;3.08;2.78;;;2.50;99.90;;;;;;5014584;28;20229;-71
2021/12/20 13:40:47;;;;;;;2.97;2.38;;;2.50;99.90;;;;;;5014009;28;20186;-71
2021/12/20 13:43:18;;;;;;;2.42;2.25;;;2.40;99.90;;;;;;5014003;28;20288;-70
2021/12/20 13:46:00;;;;;;;6.13;3.03;;;2.50;99.90;;;;;;5013905;28;20237;-70
2021/12/20 13:48:27;;;;;;;4.20;2.50;;;2.50;99.90;;;;;;5013312;28;20309;-70
2021/12/20 13:50:54;;;;;;;2.80;2.40;;;2.50;99.90;;;;;;5013919;28;20293;-70
2021/12/20 13:53:29;;;;;;;2.88;2.67;;;2.50;99.90;;;;;;5014681;28;20602;-70
2021/12/20 13:55:58;;;;;;;4.78;2.95;;;2.50;99.90;;;;;;5013905;28;20272;-70
2021/12/20 13:58:26;;;;;;;4.13;3.10;;;2.50;99.90;;;;;;5013548;28;20209;-70
2021/12/20 14:00:53;;;;;;;4.43;3.05;;;2.50;99.90;;;;;;5014656;28;20292;-71
2021/12/20 14:03:20;;;;;;;5.38;3.33;;;2.50;99.90;;;;;;5018435;28;20369;-71
2021/12/20 14:05:48;;;;;;;3.28;2.70;;;2.60;99.90;;;;;;5027562;28;20260;-69
2021/12/20 14:08:21;;;;;;;5.28;2.95;;;2.60;99.90;;;;;;5020491;28;20249;-68
2021/12/20 14:10:51;;;;;;;5.93;2.83;;;2.50;99.90;;;;;;5025861;28;20212;-68
2021/12/20 14:13:20;;;;;;;4.75;3.50;;;2.50;99.90;;;;;;5027724;28;20205;-69
2021/12/20 14:15:48;;;;;;;5.05;3.97;;;2.40;99.90;;;;;;5023972;28;20233;-69
2021/12/20 14:18:16;;;;;;;3.78;3.22;;;2.40;99.90;;;;;;5021380;28;20233;-69
2021/12/20 14:20:46;;;;;;;4.88;2.78;;;2.40;99.90;;;;;;5017144;28;20229;-68
2021/12/20 14:23:25;;;;;;;7.80;2.70;;;2.50;99.90;;;;;;5017862;28;20202;-68
2021/12/20 14:26:04;;;;;;;3.28;2.70;;;2.40;99.90;;;;;;5015035;28;20300;-70
2021/12/20 14:28:33;;;;;;;4.53;3.13;;;2.40;99.90;;;;;;5014146;28;20178;-67
2021/12/20 14:31:04;;;;;;;7.75;2.80;;;2.30;99.90;;;;;;5013297;28;20652;-67
2021/12/20 14:33:33;;;;;;;4.78;2.70;;;2.30;99.90;;;;;;5013148;28;20273;-67
2021/12/20 14:36:03;;;;;;;5.72;3.10;;;2.20;99.90;;;;;;5013403;28;20284;-67
2021/12/20 14:38:33;;;;;;;6.18;2.97;;;2.10;99.90;;;;;;5013451;28;20217;-67
2021/12/20 14:41:05;;;;;;;4.38;3.00;;;2.10;99.90;;;;;;5013112;28;20692;-67
2021/12/20 14:43:34;;;;;;;5.75;3.42;;;2.10;99.90;;;;;;5013589;28;20222;-67
2021/12/20 14:46:20;;;;;;;4.32;3.13;;;2.10;99.90;;;;;;5012999;28;20709;-68
2021/12/20 14:48:50;;;;;;;4.95;3.97;;;2.10;99.90;;;;;;5016297;28;20221;-67
2021/12/20 14:51:19;;;;;;;5.30;3.60;;;2.10;99.90;;;;;;5013278;28;20248;-69
2021/12/20 14:53:46;;;;;;;8.30;4.18;;;2.10;99.90;;;;;;5012797;28;20772;-68
2021/12/20 14:56:15;;;;;;;3.45;3.17;;;2.10;99.90;;;;;;5012737;28;20720;-68
2021/12/20 14:58:42;;;;;;;4.85;3.72;;;2.10;99.90;;;;;;5013290;28;20237;-68
2021/12/20 15:01:09;;;;;;;3.60;3.30;;;2.10;99.90;;;;;;5013423;28;20206;-68
2021/12/20 15:03:42;;;;;;;5.18;4.15;;;2.10;99.90;;;;;;5012712;28;20651;-68
2021/12/20 15:06:09;;;;;;;4.28;3.88;;;2.10;99.90;;;;;;5012932;28;20207;-68
2021/12/20 15:08:36;;;;;;;6.00;4.30;;;2.00;99.90;;;;;;5014302;28;20191;-68
2021/12/20 15:11:04;;;;;;;8.13;4.57;;;2.00;99.90;;;;;;5016581;28;20297;-68
2021/12/20 15:13:33;;;;;;;5.38;3.67;;;2.00;99.90;;;;;;5016429;28;20651;-68
2021/12/20 15:16:00;;;;;;;5.00;4.18;;;2.00;99.90;;;;;;5016571;28;20289;-68
2021/12/20 15:18:29;;;;;;;5.18;4.28;;;2.00;99.90;;;;;;5016572;28;20208;-68
2021/12/20 15:20:56;;;;;;;6.30;4.40;;;1.90;99.90;;;;;;5016237;28;20197;-68
2021/12/20 15:23:23;;;;;;;7.47;4.72;;;1.90;99.90;;;;;;5016488;28;20208;-68
2021/12/20 15:25:50;;;;;;;6.30;4.20;;;1.90;99.90;;;;;;5016336;28;20218;-68
2021/12/20 15:28:17;;;;;;;6.65;4.75;;;1.90;99.90;;;;;;5016348;28;20229;-69
2021/12/20 15:30:45;;;;;;;6.20;3.95;;;1.80;99.90;;;;;;5016359;28;20292;-68
2021/12/20 15:33:13;;;;;;;4.10;3.53;;;1.80;99.90;;;;;;5016409;28;20293;-68
2021/12/20 15:35:41;;;;;;;4.03;3.58;;;1.80;99.90;;;;;;5016019;28;20198;-68
2021/12/20 15:38:08;;;;;;;4.18;3.85;;;1.80;99.90;;;;;;5016209;28;20268;-68
2021/12/20 15:40:36;;;;;;;5.97;4.25;;;1.80;99.90;;;;;;5015989;28;20730;-68
2021/12/20 15:43:10;;;;;;;5.32;4.72;;;1.80;99.90;;;;;;5016345;28;20293;-68
2021/12/20 15:45:39;;;;;;;7.47;4.10;;;1.80;99.90;;;;;;5015976;28;20214;-68
2021/12/20 15:48:09;;;;;;;4.43;3.70;;;1.70;99.90;;;;;;5015771;28;20324;-68
2021/12/20 15:50:38;;;;;;;4.72;3.75;;;1.60;99.90;;;;;;5016106;28;20190;-68
2021/12/20 15:53:05;;;;;;;4.68;3.67;;;1.60;99.90;;;;;;5015855;28;20244;-68
2021/12/20 15:55:33;;;;;;;10.55;4.50;;;1.60;99.90;;;;;;5016172;28;20194;-68
2021/12/20 15:58:01;;;;;;;4.25;3.60;;;1.50;99.90;;;;;;5015423;28;20309;-68
2021/12/20 16:00:28;;;;;;;5.85;3.67;;;1.50;99.90;;;;;;5015649;28;20293;-68
2021/12/20 16:02:55;;;;;;;4.78;4.03;;;1.50;99.90;;;;;;5015812;28;20291;-68
2021/12/20 16:05:24;;;;;;;6.85;3.78;;;1.50;99.90;;;;;;5015619;28;20305;-68
2021/12/20 16:07:51;;;;;;;11.30;4.15;;;1.60;99.90;;;;;;5015542;28;20254;-68
2021/12/20 16:10:19;;;;;;;8.55;4.82;;;1.50;99.90;;;;;;5015429;28;20281;-68
2021/12/20 16:12:46;;;;;;;8.43;4.55;;;1.50;99.90;;;;;;5015121;28;20301;-68
2021/12/20 16:15:20;;;;;;;8.43;4.25;;;1.50;99.90;;;;;;5015544;28;20288;-69
2021/12/20 16:17:48;;;;;;;7.10;4.13;;;1.50;99.90;;;;;;5015196;28;20232;-69
2021/12/20 16:20:15;;;;;;;6.35;4.15;;;1.50;99.90;;;;;;5014927;28;20229;-70
2021/12/20 16:22:44;;;;;;;5.13;4.00;;;1.50;99.90;;;;;;5015455;28;20233;-71
2021/12/20 16:25:14;;;;;;;6.35;4.50;;;1.50;99.90;;;;;;5015280;28;20253;-70
2021/12/20 16:27:42;;;;;;;5.80;4.22;;;1.50;99.90;;;;;;5015124;28;20796;-69
2021/12/20 16:30:12;;;;;;;9.07;4.25;;;1.40;99.90;;;;;;5014992;28;20289;-69
2021/12/20 16:32:40;;;;;;;6.82;4.75;;;1.40;99.90;;;;;;5015331;28;20252;-68
2021/12/20 16:35:09;;;;;;;9.02;5.07;;;1.40;99.90;;;;;;5014861;28;20206;-68
2021/12/20 16:37:36;;;;;;;12.27;5.07;;;1.40;99.90;;;;;;5014901;28;20317;-69
2021/12/20 16:40:07;;;;;;;6.22;4.63;;;1.30;99.90;;;;;;5014873;28;20201;-69
2021/12/20 16:42:34;;;;;;;7.13;4.60;;;1.30;99.90;;;;;;5014370;28;20733;-68
2021/12/20 16:45:01;;;;;;;6.82;5.00;;;1.20;99.90;;;;;;5015726;28;20228;-69
2021/12/20 16:47:37;;;;;;;5.88;4.90;;;1.10;99.90;;;;;;5015160;28;20257;-69
2021/12/20 16:50:08;;;;;;;6.90;4.72;;;1.10;99.90;;;;;;5014860;28;20722;-69
2021/12/20 16:52:35;;;;;;;7.75;4.95;;;1.10;99.90;;;;;;5015059;28;20284;-70
2021/12/20 16:55:03;;;;;;;6.88;5.20;;;1.00;99.90;;;;;;5014988;28;20713;-70
2021/12/20 16:57:31;;;;;;;6.63;5.03;;;1.00;99.90;;;;;;5014739;28;20756;-70
2021/12/20 16:59:58;;;;;;;8.85;5.05;;;0.90;99.90;;;;;;5014794;28;20204;-70
2021/12/20 17:02:29;;;;;;;8.20;4.75;;;0.90;99.90;;;;;;5014879;28;20284;-70
2021/12/20 17:05:06;;;;;;;7.55;4.47;;;0.90;99.90;;;;;;5014557;28;20256;-70
2021/12/20 17:07:33;;;;;;;6.32;4.82;;;0.80;99.90;;;;;;5014698;28;20226;-70
2021/12/20 17:10:00;;;;;;;5.32;4.25;;;0.80;99.90;;;;;;5014324;28;20289;-71
2021/12/20 17:12:28;;;;;;;5.80;4.35;;;0.70;99.90;;;;;;5014575;28;20297;-71
2021/12/20 17:14:56;;;;;;;6.45;3.72;;;0.70;99.90;;;;;;5014601;28;20296;-70
2021/12/20 17:17:23;;;;;;;6.43;4.55;;;0.70;99.90;;;;;;5014314;28;20329;-70
2021/12/20 17:19:50;;;;;;;4.40;3.60;;;0.70;99.90;;;;;;5014137;28;20764;-70
2021/12/20 17:22:16;;;;;;;3.53;3.28;;;0.60;99.90;;;;;;5014147;28;20231;-70
2021/12/20 17:24:47;;;;;;;3.22;2.92;;;0.50;99.90;;;;;;5014090;28;20301;-70
2021/12/20 17:27:15;;;;;;;3.08;2.88;;;0.50;99.90;;;;;;5014405;28;20218;-71
2021/12/20 17:29:42;;;;;;;3.17;2.97;;;0.40;99.90;;;;;;5013876;28;20677;-72
2021/12/20 17:32:11;;;;;;;3.08;2.88;;;0.40;99.90;;;;;;5013424;28;20285;-72
2021/12/20 17:34:38;;;;;;;2.60;2.50;;;0.30;99.90;;;;;;5014322;28;20202;-72
2021/12/20 17:37:06;;;;;;;2.53;2.33;;;0.20;99.90;;;;;;5014416;28;20285;-72
2021/12/20 17:39:33;;;;;;;2.78;2.55;;;0.20;99.90;;;;;;5014151;28;20308;-70
2021/12/20 17:42:01;;;;;;;2.50;2.40;;;0.10;99.90;;;;;;5015022;28;20598;-71
2021/12/20 17:44:29;;;;;;;2.45;2.25;;;0.10;99.90;;;;;;5017785;28;20608;-71
2021/12/20 17:46:56;;;;;;;2.50;2.40;;;0.00;99.90;;;;;;5017871;28;20226;-68
2021/12/20 17:49:25;;;;;;;2.25;2.13;;;0.00;99.90;;;;;;5018256;28;20209;-69
2021/12/20 17:51:52;;;;;;;2.22;2.13;;;0.00;99.90;;;;;;5018564;28;20526;-69
2021/12/20 17:54:19;;;;;;;2.75;2.55;;;-0.10;99.90;;;;;;5018192;28;20293;-68
2021/12/20 17:56:47;;;;;;;3.80;3.15;;;-0.10;99.90;;;;;;5017499;28;20240;-69
2021/12/20 17:59:14;;;;;;;3.47;3.17;;;-0.10;99.90;;;;;;5017983;28;20238;-69
2021/12/20 18:01:42;;;;;;;2.35;2.15;;;-0.10;99.90;;;;;;5019265;28;20260;-69
2021/12/20 18:04:13;;;;;;;2.85;2.65;;;-0.20;99.90;;;;;;5020053;28;20202;-70
2021/12/20 18:06:44;;;;;;;2.60;2.40;;;-0.20;99.90;;;;;;5018082;28;20689;-69
2021/12/20 18:09:13;;;;;;;3.85;2.55;;;-0.20;99.90;;;;;;5016979;28;20225;-70
2021/12/20 18:11:40;;;;;;;2.63;2.53;;;-0.30;99.90;;;;;;5016953;28;20206;-70
2021/12/20 18:14:08;;;;;;;2.58;2.38;;;-0.30;99.90;;;;;;5017493;28;20276;-71
2021/12/20 18:16:35;;;;;;;2.60;2.40;;;-0.40;99.90;;;;;;5017152;28;20275;-71
2021/12/20 18:19:03;;;;;;;2.40;2.30;;;-0.40;99.90;;;;;;5017463;28;20543;-70
2021/12/20 18:21:30;;;;;;;2.72;2.53;;;-0.50;99.90;;;;;;5017886;28;20205;-71
2021/12/20 18:24:00;;;;;;;2.45;2.25;;;-0.50;99.90;;;;;;5018359;28;20689;-70
2021/12/20 18:26:28;;;;;;;2.47;2.38;;;-0.60;99.90;;;;;;5017372;28;20284;-69
2021/12/20 18:28:57;;;;;;;2.10;2.00;;;-0.60;99.90;;;;;;5016940;28;20210;-69
2021/12/20 18:31:24;;;;;;;2.40;2.20;;;-0.60;99.90;;;;;;5018255;28;20238;-69
2021/12/20 18:33:52;;;;;;;2.25;2.15;;;-0.70;99.90;;;;;;5017486;28;20202;-69
2021/12/20 18:36:19;;;;;;;2.30;2.20;;;-0.70;99.90;;;;;;5013060;28;20221;-70
2021/12/20 18:38:46;;;;;;;2.08;1.98;;;-0.70;99.90;;;;;;5013084;28;20297;-70
2021/12/20 18:41:14;;;;;;;2.00;1.90;;;-0.80;99.90;;;;;;5013526;28;20205;-70
2021/12/20 18:43:41;;;;;;;2.10;2.00;;;-0.80;99.90;;;;;;5015446;28;20292;-71
2021/12/20 18:46:09;;;;;;;2.22;2.05;;;-0.80;99.90;;;;;;5016990;28;20309;-70
2021/12/20 18:48:36;;;;;;;2.42;2.33;;;-0.80;99.90;;;;;;5016992;28;20232;-70
2021/12/20 18:51:04;;;;;;;2.17;2.08;;;-0.90;99.90;;;;;;5017300;28;20293;-70
2021/12/20 18:53:32;;;;;;;2.40;2.30;;;-0.90;99.90;;;;;;5017330;28;20232;-70
2021/12/20 18:56:00;;;;;;;1.95;1.95;;;-0.90;99.90;;;;;;5017252;28;20194;-71
2021/12/20 18:58:29;;;;;;;3.33;3.03;;;-0.90;99.90;;;;;;5017239;28;20634;-70
2021/12/20 19:00:57;;;;;;;3.60;3.15;;;-0.90;99.90;;;;;;5017280;28;20288;-70
2021/12/20 19:03:26;;;;;;;2.97;2.40;;;-0.90;99.90;;;;;;5017014;28;20202;-70
2021/12/20 19:05:53;;;;;;;3.20;2.90;;;-0.90;99.90;;;;;;5016920;28;20221;-71
2021/12/20 19:08:23;;;;;;;3.33;3.03;;;-0.90;99.90;;;;;;5017248;28;20257;-70
2021/12/20 19:11:00;;;;;;;2.65;2.45;;;-0.90;99.90;;;;;;5017001;28;20201;-71
2021/12/20 19:13:32;;;;;;;2.55;2.30;;;-0.90;99.90;;;;;;5017152;28;20190;-69
2021/12/20 19:15:59;;;;;;;3.00;2.85;;;-0.90;99.90;;;;;;5016950;28;20218;-70
2021/12/20 19:18:27;;;;;;;3.13;2.92;;;-0.90;99.90;;;;;;5016507;28;20206;-71
2021/12/20 19:20:55;;;;;;;3.00;2.72;;;-1.00;99.90;;;;;;5016501;28;20206;-72
2021/12/20 19:23:22;;;;;;;4.03;3.42;;;-1.00;99.90;;;;;;5016514;28;20244;-71
2021/12/20 19:25:54;;;;;;;3.47;3.17;;;-1.00;99.90;;;;;;5016428;28;20232;-71
2021/12/20 19:28:21;;;;;;;2.70;2.50;;;-1.00;99.90;;;;;;5016679;28;20221;-71
2021/12/20 19:30:50;;;;;;;3.10;2.90;;;-1.00;99.90;;;;;;5016517;28;20198;-72
2021/12/20 19:33:17;;;;;;;3.67;3.40;;;-1.00;99.90;;;;;;5016473;28;20267;-72
2021/12/20 19:35:46;;;;;;;4.22;3.20;;;-1.00;99.90;;;;;;5016381;28;20285;-72
2021/12/20 19:38:13;;;;;;;4.50;3.60;;;-1.00;99.90;;;;;;5016401;28;20222;-71
2021/12/20 19:40:41;;;;;;;3.67;3.30;;;-1.00;99.90;;;;;;5016331;28;20342;-71
2021/12/20 19:43:09;;;;;;;6.10;4.88;;;-1.00;99.90;;;;;;5016223;28;20209;-71
2021/12/20 19:45:36;;;;;;;4.65;4.20;;;-1.00;99.90;;;;;;5016208;28;20616;-71
2021/12/20 19:48:05;;;;;;;4.85;4.45;;;-1.00;99.90;;;;;;5015667;28;20780;-71
2021/12/20 19:50:32;;;;;;;6.32;4.30;;;-1.10;99.90;;;;;;5015839;28;20292;-71
2021/12/20 19:53:00;;;;;;;5.40;4.20;;;-1.10;99.90;;;;;;5016093;28;20293;-71
2021/12/20 19:55:27;;;;;;;4.75;4.22;;;-1.10;99.90;;;;;;5015154;28;20288;-70
2021/12/20 19:57:54;;;;;;;5.88;4.18;;;-1.20;99.90;;;;;;5015968;28;20352;-70
2021/12/20 20:00:21;;;;;;;3.17;2.97;;;-1.20;99.90;;;;;;5015936;28;20292;-69
2021/12/20 20:02:47;;;;;;;4.43;3.95;;;-1.30;99.90;;;;;;5015884;28;20212;-70
2021/12/20 20:05:16;;;;;;;3.65;3.33;;;-1.30;99.90;;;;;;5015837;28;20300;-69
2021/12/20 20:07:43;;;;;;;3.72;3.42;;;-1.30;99.90;;;;;;5015554;28;20680;-70
2021/12/20 20:10:10;;;;;;;3.60;3.25;;;-1.30;99.90;;;;;;5015862;28;20377;-70
2021/12/20 20:12:37;;;;;;;3.08;2.78;;;-1.40;99.90;;;;;;5015789;28;20280;-70
2021/12/20 20:15:05;;;;;;;4.38;3.97;;;-1.40;99.90;;;;;;5015786;28;20229;-69
2021/12/20 20:17:33;;;;;;;3.10;2.90;;;-1.40;99.90;;;;;;5015639;28;20272;-70
2021/12/20 20:20:00;;;;;;;3.65;3.33;;;-1.50;99.90;;;;;;5015677;28;20206;-68
2021/12/20 20:22:29;;;;;;;3.33;3.13;;;-1.50;99.90;;;;;;5015545;28;20288;-68
2021/12/20 20:24:56;;;;;;;3.00;2.80;;;-1.50;99.90;;;;;;5015162;28;20198;-69
2021/12/20 20:27:25;;;;;;;3.35;3.15;;;-1.50;99.90;;;;;;5015126;28;20226;-69
2021/12/20 20:29:52;;;;;;;2.80;2.60;;;-1.50;99.90;;;;;;5015427;28;20241;-69
2021/12/20 20:32:21;;;;;;;3.22;2.63;;;-1.50;99.90;;;;;;5014999;28;20556;-68
2021/12/20 20:34:48;;;;;;;3.22;2.83;;;-1.40;99.90;;;;;;5015148;28;20209;-67
2021/12/20 20:37:15;;;;;;;7.72;4.63;;;-1.40;99.90;;;;;;5015237;28;20214;-68
2021/12/20 20:39:43;;;;;;;4.90;4.05;;;-1.40;99.90;;;;;;5014902;28;20572;-69
2021/12/20 20:42:12;;;;;;;6.10;4.40;;;-1.30;99.90;;;;;;5015245;28;20293;-68
2021/12/20 20:44:39;;;;;;;5.00;4.50;;;-1.20;99.90;;;;;;5015227;28;20213;-68
2021/12/20 20:47:07;;;;;;;6.80;4.38;;;-1.20;99.90;;;;;;5014994;28;20226;-68
2021/12/20 20:49:37;;;;;;;7.97;5.38;;;-1.20;99.90;;;;;;5014682;28;20218;-68
2021/12/20 20:52:04;;;;;;;8.63;5.82;;;-1.20;99.90;;;;;;5015287;28;20183;-68
2021/12/20 20:54:31;;;;;;;12.65;6.53;;;-1.20;99.90;;;;;;5014596;28;20293;-68
2021/12/20 20:57:00;;;;;;;10.30;6.80;;;-1.10;99.90;;;;;;5014559;28;20312;-68
2021/12/20 20:59:27;;;;;;;10.18;5.95;;;-1.10;99.90;;;;;;5014575;28;20233;-68
2021/12/20 21:01:54;;;;;;;9.55;6.03;;;-1.20;99.90;;;;;;5014482;28;20266;-68
2021/12/20 21:04:25;;;;;;;9.25;5.75;;;-1.10;99.90;;;;;;5014752;28;20293;-68
2021/12/20 21:06:53;;;;;;;10.80;6.88;;;-1.10;99.90;;;;;;5014726;28;20222;-69
2021/12/20 21:09:20;;;;;;;10.80;7.20;;;-1.10;99.90;;;;;;5014776;28;20285;-69
2021/12/20 21:11:50;;;;;;;12.27;6.55;;;-1.10;99.90;;;;;;5014625;28;20301;-70
2021/12/20 21:14:19;;;;;;;7.38;5.30;;;-1.10;99.90;;;;;;5014714;28;20209;-69
2021/12/20 21:16:48;;;;;;;9.90;5.90;;;-1.10;99.90;;;;;;5014115;28;20793;-69
2021/12/20 21:19:16;;;;;;;8.45;5.60;;;-1.10;99.90;;;;;;5014602;28;20289;-69
2021/12/20 21:21:43;;;;;;;7.72;5.45;;;-1.20;99.90;;;;;;5014306;28;20202;-69
2021/12/20 21:24:11;;;;;;;7.72;5.30;;;-1.20;99.90;;;;;;5014339;28;20229;-69
2021/12/20 21:26:38;;;;;;;6.15;4.65;;;-1.30;99.90;;;;;;5014324;28;20229;-69
2021/12/20 21:29:07;;;;;;;4.57;4.15;;;-1.40;99.90;;;;;;5014502;28;20550;-69
2021/12/20 21:31:36;;;;;;;5.47;4.38;;;-1.50;99.90;;;;;;5014351;28;20201;-69
2021/12/20 21:34:04;;;;;;;4.85;4.38;;;-1.50;99.90;;;;;;5014088;28;20290;-69
2021/12/20 21:36:32;;;;;;;3.95;3.55;;;-1.60;99.90;;;;;;5014401;28;20304;-70
2021/12/20 21:38:58;;;;;;;4.22;3.80;;;-1.60;99.90;;;;;;5014258;28;20636;-69
2021/12/20 21:41:25;;;;;;;4.03;3.72;;;-1.70;99.90;;;;;;5014206;28;20290;-69
2021/12/20 21:43:52;;;;;;;4.13;3.60;;;-1.70;99.90;;;;;;5014329;28;20294;-69
2021/12/20 21:46:20;;;;;;;5.10;3.85;;;-1.70;99.90;;;;;;5013955;28;20253;-69
2021/12/20 21:48:48;;;;;;;3.78;3.47;;;-1.80;99.90;;;;;;5013827;28;20649;-69
2021/12/20 21:51:15;;;;;;;3.95;3.53;;;-1.80;99.90;;;;;;5014087;28;20284;-69
2021/12/20 21:53:42;;;;;;;3.92;3.63;;;-1.80;99.90;;;;;;5014166;28;20293;-69
2021/12/20 21:56:09;;;;;;;4.18;3.75;;;-1.90;99.90;;;;;;5014003;28;20297;-69
2021/12/20 21:58:36;;;;;;;5.47;3.92;;;-1.90;99.90;;;;;;5013955;28;20230;-69
2021/12/20 22:01:04;;;;;;;4.57;4.18;;;-1.90;99.90;;;;;;5014027;28;20289;-70
2021/12/20 22:03:31;;;;;;;4.18;3.88;;;-1.90;99.90;;;;;;5013977;28;20293;-69
2021/12/20 22:05:59;;;;;;;4.43;3.97;;;-1.90;99.90;;;;;;5013645;28;20761;-70
2021/12/20 22:08:26;;;;;;;5.55;4.82;;;-2.00;99.90;;;;;;5013799;28;20320;-69
2021/12/20 22:10:53;;;;;;;4.78;4.00;;;-2.00;99.90;;;;;;5013873;28;20298;-70
2021/12/20 22:13:19;;;;;;;5.93;4.07;;;-2.00;99.90;;;;;;5013828;28;20297;-69
2021/12/20 22:15:46;;;;;;;4.53;3.90;;;-2.00;99.90;;;;;;5013545;28;20653;-69
2021/12/20 22:18:13;;;;;;;3.85;3.55;;;-2.10;99.90;;;;;;5013923;28;20659;-69
2021/12/20 22:20:40;;;;;;;3.50;3.20;;;-2.10;99.90;;;;;;5017525;28;20675;-69
2021/12/20 22:23:09;;;;;;;4.55;3.13;;;-2.10;99.90;;;;;;5017745;28;20301;-69
2021/12/20 22:25:36;;;;;;;4.43;3.17;;;-2.10;99.90;;;;;;5017388;28;20657;-69
2021/12/20 22:28:03;;;;;;;4.20;3.38;;;-2.10;99.90;;;;;;5017497;28;20229;-70
2021/12/20 22:30:30;;;;;;;3.70;3.40;;;-2.20;99.90;;;;;;5017587;28;20300;-70
2021/12/20 22:32:57;;;;;;;5.32;4.30;;;-2.20;99.90;;;;;;5017659;28;20653;-69
2021/12/20 22:35:24;;;;;;;5.82;4.03;;;-2.20;99.90;;;;;;5017277;28;20209;-70
2021/12/20 22:37:51;;;;;;;4.63;3.95;;;-2.20;99.90;;;;;;5017455;28;20268;-70
2021/12/20 22:40:19;;;;;;;7.28;4.07;;;-2.30;99.90;;;;;;5017470;28;20296;-70
2021/12/20 22:42:46;;;;;;;5.90;4.20;;;-2.30;99.90;;;;;;5017486;28;20212;-70
2021/12/20 22:45:13;;;;;;;4.40;3.80;;;-2.30;99.90;;;;;;5017402;28;20229;-70
2021/12/20 22:47:40;;;;;;;4.63;3.83;;;-2.30;99.90;;;;;;5017049;28;20313;-70
2021/12/20 22:50:09;;;;;;;4.95;3.80;;;-2.30;99.90;;;;;;5017313;28;20282;-69
2021/12/20 22:52:36;;;;;;;5.78;3.88;;;-2.40;99.90;;;;;;5017401;28;20289;-70
2021/12/20 22:55:04;;;;;;;6.18;3.85;;;-2.40;99.90;;;;;;5017223;28;20289;-71
2021/12/20 22:57:35;;;;;;;4.78;3.38;;;-2.30;99.90;;;;;;5017527;28;20214;-70
2021/12/20 23:00:09;;;;;;;4.35;3.20;;;-2.30;99.90;;;;;;5017327;28;20186;-70
